createdAt,value
2018-03-03T00:01:50.795Z,995.40
2018-03-03T00:02:50.748Z,995.42
2018-03-03T00:04:43.631Z,995.37
2018-03-03T00:05:43.657Z,995.37
2018-03-03T00:07:36.542Z,995.36
2018-03-03T00:08:36.526Z,995.37
2018-03-03T00:10:29.468Z,995.31
2018-03-03T00:11:29.425Z,995.34
2018-03-03T00:13:22.326Z,995.32
2018-03-03T00:14:22.314Z,995.31
2018-03-03T00:16:15.245Z,995.33
2018-03-03T00:17:15.249Z,995.31
2018-03-03T00:19:08.132Z,995.35
2018-03-03T00:20:08.121Z,995.33
2018-03-03T00:22:01.043Z,995.29
2018-03-03T00:23:01.013Z,995.30
2018-03-03T00:24:53.894Z,995.28
2018-03-03T00:25:53.907Z,995.28
2018-03-03T00:27:46.797Z,995.26
2018-03-03T00:28:46.785Z,995.23
2018-03-03T00:30:39.662Z,995.27
2018-03-03T00:31:39.670Z,995.22
2018-03-03T00:33:32.635Z,995.23
2018-03-03T00:34:32.575Z,995.19
2018-03-03T00:36:25.448Z,995.23
2018-03-03T00:37:25.447Z,995.21
2018-03-03T00:39:18.349Z,995.17
2018-03-03T00:40:18.339Z,995.22
2018-03-03T00:42:11.225Z,995.18
2018-03-03T00:43:11.226Z,995.18
2018-03-03T00:45:04.126Z,995.19
2018-03-03T00:46:04.147Z,995.16
2018-03-03T00:47:57.036Z,995.15
2018-03-03T00:48:57.015Z,995.16
2018-03-03T00:50:49.899Z,995.10
2018-03-03T00:51:49.903Z,995.15
2018-03-03T00:53:42.802Z,995.11
2018-03-03T00:54:42.790Z,995.12
2018-03-03T00:56:35.738Z,995.10
2018-03-03T00:57:35.731Z,995.09
2018-03-03T00:59:28.623Z,995.07
2018-03-03T01:00:28.569Z,995.05
2018-03-03T01:02:21.517Z,995.05
2018-03-03T01:03:21.458Z,995.06
2018-03-03T01:05:14.368Z,994.99
2018-03-03T01:06:14.346Z,995.00
2018-03-03T01:08:07.286Z,995.01
2018-03-03T01:09:07.254Z,994.98
2018-03-03T01:11:00.136Z,994.98
2018-03-03T01:12:00.144Z,995.01
2018-03-03T01:13:53.044Z,994.97
2018-03-03T01:14:53.031Z,994.99
2018-03-03T01:16:45.908Z,995.00
2018-03-03T01:17:45.918Z,995.01
2018-03-03T01:19:38.815Z,994.97
2018-03-03T01:20:38.805Z,994.94
2018-03-03T01:22:31.680Z,995.05
2018-03-03T01:23:31.693Z,995.02
2018-03-03T01:25:24.589Z,994.99
2018-03-03T01:26:24.574Z,994.98
2018-03-03T01:28:17.453Z,995.00
2018-03-03T01:29:17.461Z,995.06
2018-03-03T01:31:10.358Z,995.02
2018-03-03T01:32:10.348Z,994.97
2018-03-03T01:34:03.243Z,994.96
2018-03-03T01:35:03.230Z,994.95
2018-03-03T01:36:56.111Z,994.89
2018-03-03T01:37:56.118Z,994.94
2018-03-03T01:39:49.022Z,994.91
2018-03-03T01:40:49.000Z,994.91
2018-03-03T01:42:41.880Z,994.95
2018-03-03T01:43:41.886Z,994.95
2018-03-03T01:45:34.791Z,994.89
2018-03-03T01:46:34.779Z,994.97
2018-03-03T01:48:27.657Z,994.93
2018-03-03T01:49:27.664Z,994.88
2018-03-03T01:51:20.564Z,994.90
2018-03-03T01:52:20.553Z,994.93
2018-03-03T01:54:13.464Z,994.91
2018-03-03T01:55:13.437Z,994.94
2018-03-03T01:57:06.315Z,994.91
2018-03-03T01:58:06.323Z,994.94
2018-03-03T01:59:59.220Z,994.93
2018-03-03T02:00:59.212Z,994.94
2018-03-03T02:02:52.086Z,994.91
2018-03-03T02:03:52.095Z,994.96
2018-03-03T02:05:44.994Z,994.94
2018-03-03T02:06:44.980Z,994.94
2018-03-03T02:08:37.859Z,994.89
2018-03-03T02:09:37.874Z,994.90
2018-03-03T02:11:30.767Z,994.89
2018-03-03T02:12:30.751Z,994.82
2018-03-03T02:14:23.632Z,994.82
2018-03-03T02:15:23.637Z,994.87
2018-03-03T02:17:16.579Z,994.83
2018-03-03T02:18:16.528Z,994.80
2018-03-03T02:20:09.429Z,994.83
2018-03-03T02:21:09.419Z,994.85
2018-03-03T02:23:02.298Z,994.81
2018-03-03T02:24:02.306Z,994.81
2018-03-03T02:25:55.203Z,994.79
2018-03-03T02:26:55.188Z,994.79
2018-03-03T02:28:48.073Z,994.76
2018-03-03T02:29:48.089Z,994.76
2018-03-03T02:31:40.979Z,994.77
2018-03-03T02:32:40.966Z,994.75
2018-03-03T02:34:33.851Z,994.79
2018-03-03T02:35:33.857Z,994.76
2018-03-03T02:37:26.755Z,994.78
2018-03-03T02:38:26.743Z,994.78
2018-03-03T02:40:19.660Z,994.68
2018-03-03T02:41:19.630Z,994.68
2018-03-03T02:43:12.517Z,994.63
2018-03-03T02:44:12.525Z,994.62
2018-03-03T02:46:05.426Z,994.60
2018-03-03T02:47:05.411Z,994.58
2018-03-03T02:48:58.293Z,994.54
2018-03-03T02:49:58.295Z,994.56
2018-03-03T02:51:51.218Z,994.55
2018-03-03T02:52:51.182Z,994.52
2018-03-03T02:54:44.060Z,994.51
2018-03-03T02:55:44.069Z,994.48
2018-03-03T02:57:36.971Z,994.48
2018-03-03T02:58:36.953Z,994.47
2018-03-03T03:00:29.873Z,994.52
2018-03-03T03:01:29.851Z,994.49
2018-03-03T03:03:22.753Z,994.51
2018-03-03T03:04:22.733Z,994.43
2018-03-03T03:06:15.633Z,994.40
2018-03-03T03:07:15.617Z,994.41
2018-03-03T03:09:08.499Z,994.44
2018-03-03T03:10:08.503Z,994.47
2018-03-03T03:12:01.407Z,994.45
2018-03-03T03:13:01.390Z,994.44
2018-03-03T03:14:54.271Z,994.44
2018-03-03T03:15:54.274Z,994.43
2018-03-03T03:17:47.172Z,994.40
2018-03-03T03:18:47.157Z,994.34
2018-03-03T03:20:40.039Z,994.33
2018-03-03T03:21:40.046Z,994.30
2018-03-03T03:23:32.946Z,994.30
2018-03-03T03:24:32.931Z,994.24
2018-03-03T03:26:25.837Z,994.26
2018-03-03T03:27:25.819Z,994.27
2018-03-03T03:29:18.701Z,994.18
2018-03-03T03:30:18.703Z,994.26
2018-03-03T03:32:11.606Z,994.24
2018-03-03T03:33:11.588Z,994.21
2018-03-03T03:35:04.466Z,994.24
2018-03-03T03:36:04.473Z,994.21
2018-03-03T03:37:57.381Z,994.23
2018-03-03T03:38:57.360Z,994.18
2018-03-03T03:40:50.238Z,994.17
2018-03-03T03:41:50.247Z,994.14
2018-03-03T03:43:43.143Z,994.17
2018-03-03T03:44:43.130Z,994.15
2018-03-03T03:46:36.007Z,994.11
2018-03-03T03:47:36.014Z,994.14
2018-03-03T03:49:28.910Z,994.13
2018-03-03T03:50:28.897Z,994.09
2018-03-03T03:52:21.803Z,994.10
2018-03-03T03:53:21.794Z,994.11
2018-03-03T03:55:14.669Z,994.04
2018-03-03T03:56:14.676Z,994.08
2018-03-03T03:58:07.583Z,994.06
2018-03-03T03:59:07.573Z,994.11
2018-03-03T04:01:00.463Z,994.09
2018-03-03T04:02:00.471Z,994.11
2018-03-03T04:03:53.372Z,994.06
2018-03-03T04:04:53.354Z,994.05
2018-03-03T04:06:46.264Z,994.00
2018-03-03T04:07:46.276Z,994.04
2018-03-03T04:09:39.170Z,994.00
2018-03-03T04:10:39.158Z,994.00
2018-03-03T04:12:32.560Z,994.03
2018-03-03T04:13:32.541Z,994.02
2018-03-03T04:15:26.912Z,994.04
2018-03-03T04:16:26.920Z,994.02
2018-03-03T04:18:19.825Z,994.00
2018-03-03T04:19:19.812Z,994.00
2018-03-03T04:21:13.186Z,993.99
2018-03-03T04:22:13.195Z,993.92
2018-03-03T04:24:06.098Z,993.87
2018-03-03T04:25:06.084Z,993.86
2018-03-03T04:26:58.969Z,993.83
2018-03-03T04:27:58.977Z,993.76
2018-03-03T04:29:51.874Z,993.80
2018-03-03T04:30:51.860Z,993.76
2018-03-03T04:32:45.236Z,993.69
2018-03-03T04:33:45.251Z,993.70
2018-03-03T04:35:38.167Z,993.67
2018-03-03T04:36:38.157Z,993.64
2018-03-03T04:38:31.060Z,993.63
2018-03-03T04:39:31.049Z,993.65
2018-03-03T04:41:24.424Z,993.65
2018-03-03T04:42:24.432Z,993.65
2018-03-03T04:44:17.355Z,993.60
2018-03-03T04:45:17.323Z,993.57
2018-03-03T04:47:10.228Z,993.58
2018-03-03T04:48:10.218Z,993.57
2018-03-03T04:50:03.129Z,993.59
2018-03-03T04:51:03.107Z,993.60
2018-03-03T04:52:55.991Z,993.54
2018-03-03T04:53:56.002Z,993.54
2018-03-03T04:55:48.901Z,993.49
2018-03-03T04:56:48.890Z,993.47
2018-03-03T04:58:42.297Z,993.47
2018-03-03T04:59:42.274Z,993.47
2018-03-03T05:01:35.155Z,993.45
2018-03-03T05:02:35.163Z,993.39
2018-03-03T05:04:28.063Z,993.45
2018-03-03T05:05:28.051Z,993.40
2018-03-03T05:07:20.946Z,993.36
2018-03-03T05:08:20.952Z,993.36
2018-03-03T05:10:13.855Z,993.31
2018-03-03T05:11:13.840Z,993.27
2018-03-03T05:13:06.725Z,993.27
2018-03-03T05:14:06.730Z,993.27
2018-03-03T05:15:59.634Z,993.25
2018-03-03T05:16:59.621Z,993.34
2018-03-03T05:18:52.998Z,993.31
2018-03-03T05:19:53.002Z,993.30
2018-03-03T05:21:45.909Z,993.34
2018-03-03T05:22:45.896Z,993.34
2018-03-03T05:24:40.293Z,993.31
2018-03-03T05:25:40.277Z,993.32
2018-03-03T05:27:33.164Z,993.31
2018-03-03T05:28:33.170Z,993.27
2018-03-03T05:30:27.115Z,993.23
2018-03-03T05:31:26.551Z,993.22
2018-03-03T05:33:19.455Z,993.20
2018-03-03T05:34:19.438Z,993.25
2018-03-03T05:36:12.358Z,993.21
2018-03-03T05:37:12.326Z,993.18
2018-03-03T05:39:05.207Z,993.18
2018-03-03T05:40:05.214Z,993.20
2018-03-03T05:41:58.114Z,993.17
2018-03-03T05:42:58.114Z,993.15
2018-03-03T05:44:51.029Z,993.15
2018-03-03T05:45:51.006Z,993.16
2018-03-03T05:47:43.877Z,993.17
2018-03-03T05:48:43.882Z,993.18
2018-03-03T05:50:36.787Z,993.21
2018-03-03T05:51:36.777Z,993.27
2018-03-03T05:53:29.661Z,993.26
2018-03-03T05:54:29.666Z,993.20
2018-03-03T05:56:22.578Z,993.29
2018-03-03T05:57:22.560Z,993.25
2018-03-03T05:59:15.947Z,993.22
2018-03-03T06:00:15.954Z,993.26
2018-03-03T06:02:08.861Z,993.22
2018-03-03T06:03:08.847Z,993.27
2018-03-03T06:05:02.222Z,993.17
2018-03-03T06:06:02.229Z,993.28
2018-03-03T06:07:55.137Z,993.19
2018-03-03T06:08:55.122Z,993.23
2018-03-03T06:10:48.006Z,993.24
2018-03-03T06:11:48.030Z,993.24
2018-03-03T06:13:40.917Z,993.22
2018-03-03T06:14:40.909Z,993.25
2018-03-03T06:16:33.871Z,993.22
2018-03-03T06:17:33.861Z,993.23
2018-03-03T06:19:26.807Z,993.19
2018-03-03T06:20:26.813Z,993.23
2018-03-03T06:22:19.781Z,993.24
2018-03-03T06:23:19.768Z,993.19
2018-03-03T06:25:12.719Z,993.22
2018-03-03T06:26:12.723Z,993.22
2018-03-03T06:28:05.687Z,993.19
2018-03-03T06:29:05.676Z,993.22
2018-03-03T06:30:58.623Z,993.22
2018-03-03T06:31:58.631Z,993.16
2018-03-03T06:33:52.109Z,993.19
2018-03-03T06:34:52.097Z,993.19
2018-03-03T06:36:45.060Z,993.20
2018-03-03T06:37:45.062Z,993.22
2018-03-03T06:39:38.017Z,993.19
2018-03-03T06:40:38.005Z,993.25
2018-03-03T06:42:30.958Z,993.26
2018-03-03T06:43:30.961Z,993.23
2018-03-03T06:45:23.925Z,993.27
2018-03-03T06:46:23.912Z,993.32
2018-03-03T06:48:16.882Z,993.32
2018-03-03T06:49:16.867Z,993.34
2018-03-03T06:51:10.326Z,993.32
2018-03-03T06:52:10.334Z,993.29
2018-03-03T06:54:03.300Z,993.23
2018-03-03T06:55:03.293Z,993.38
2018-03-03T06:56:56.746Z,993.27
2018-03-03T06:57:56.753Z,993.35
2018-03-03T06:59:49.720Z,993.26
2018-03-03T07:00:49.707Z,993.31
2018-03-03T07:02:42.655Z,993.29
2018-03-03T07:03:42.666Z,993.32
2018-03-03T07:05:35.630Z,993.29
2018-03-03T07:06:35.616Z,993.27
2018-03-03T07:08:28.583Z,993.26
2018-03-03T07:09:28.570Z,993.29
2018-03-03T07:11:21.518Z,993.31
2018-03-03T07:12:21.525Z,993.29
2018-03-03T07:14:14.491Z,993.29
2018-03-03T07:15:14.479Z,993.29
2018-03-03T07:17:07.426Z,993.32
2018-03-03T07:18:07.433Z,993.29
2018-03-03T07:20:00.917Z,993.26
2018-03-03T07:21:00.905Z,993.42
2018-03-03T07:22:53.846Z,993.30
2018-03-03T07:23:53.855Z,993.32
2018-03-03T07:25:46.823Z,993.32
2018-03-03T07:26:46.812Z,993.32
2018-03-03T07:28:39.758Z,993.43
2018-03-03T07:29:39.768Z,993.39
2018-03-03T07:31:32.729Z,993.34
2018-03-03T07:32:32.732Z,993.40
2018-03-03T07:34:25.683Z,993.42
2018-03-03T07:35:25.693Z,993.40
2018-03-03T07:37:18.620Z,993.29
2018-03-03T07:38:18.629Z,993.41
2018-03-03T07:40:11.594Z,993.42
2018-03-03T07:41:11.578Z,993.37
2018-03-03T07:43:06.062Z,993.40
2018-03-03T07:44:06.072Z,993.41
2018-03-03T07:46:08.985Z,993.40
2018-03-03T07:47:08.963Z,993.47
2018-03-03T07:49:01.862Z,993.34
2018-03-03T07:50:01.855Z,993.43
2018-03-03T07:51:54.769Z,993.39
2018-03-03T07:52:54.740Z,993.41
2018-03-03T07:54:47.642Z,993.36
2018-03-03T07:55:47.628Z,993.44
2018-03-03T07:57:40.510Z,993.44
2018-03-03T07:58:40.516Z,993.41
2018-03-03T08:00:33.418Z,993.30
2018-03-03T08:01:33.406Z,993.39
2018-03-03T08:03:26.288Z,993.50
2018-03-03T08:04:26.302Z,993.33
2018-03-03T08:06:19.200Z,993.40
2018-03-03T08:07:19.187Z,993.37
2018-03-03T08:09:12.070Z,993.41
2018-03-03T08:10:12.078Z,993.40
2018-03-03T08:12:04.995Z,993.39
2018-03-03T08:13:04.971Z,993.48
2018-03-03T08:14:57.858Z,993.39
2018-03-03T08:15:57.866Z,993.46
2018-03-03T08:17:50.763Z,993.41
2018-03-03T08:18:50.755Z,993.37
2018-03-03T08:20:43.657Z,993.45
2018-03-03T08:21:43.649Z,993.45
2018-03-03T08:23:36.533Z,993.39
2018-03-03T08:24:36.539Z,993.44
2018-03-03T08:26:29.444Z,993.40
2018-03-03T08:27:29.435Z,993.42
2018-03-03T08:29:22.316Z,993.34
2018-03-03T08:30:22.353Z,993.37
2018-03-03T08:32:15.231Z,993.39
2018-03-03T08:33:15.221Z,993.40
2018-03-03T08:35:08.102Z,993.39
2018-03-03T08:36:08.110Z,993.51
2018-03-03T08:38:01.012Z,993.54
2018-03-03T08:39:01.000Z,993.46
2018-03-03T08:40:53.907Z,993.47
2018-03-03T08:41:53.893Z,993.42
2018-03-03T08:43:46.776Z,993.44
2018-03-03T08:44:46.784Z,993.32
2018-03-03T08:46:39.684Z,993.34
2018-03-03T08:47:39.678Z,993.35
2018-03-03T08:49:32.566Z,993.37
2018-03-03T08:50:32.576Z,993.37
2018-03-03T08:52:25.554Z,993.38
2018-03-03T08:53:25.474Z,993.38
2018-03-03T08:55:18.352Z,993.40
2018-03-03T08:56:18.362Z,993.42
2018-03-03T08:58:11.268Z,993.41
2018-03-03T08:59:11.257Z,993.37
2018-03-03T09:01:04.183Z,993.39
2018-03-03T09:02:04.157Z,993.36
2018-03-03T09:03:57.039Z,993.32
2018-03-03T09:04:57.045Z,993.38
2018-03-03T09:06:49.990Z,993.31
2018-03-03T09:07:49.971Z,993.30
2018-03-03T09:09:42.855Z,993.33
2018-03-03T09:10:42.863Z,993.30
2018-03-03T09:12:35.768Z,993.30
2018-03-03T09:13:35.758Z,993.29
2018-03-03T09:15:28.679Z,993.24
2018-03-03T09:16:28.650Z,993.36
2018-03-03T09:18:21.555Z,993.37
2018-03-03T09:19:21.547Z,993.35
2018-03-03T09:21:14.466Z,993.37
2018-03-03T09:22:14.490Z,993.31
2018-03-03T09:24:07.367Z,993.41
2018-03-03T09:25:07.356Z,993.44
2018-03-03T09:27:00.271Z,993.37
2018-03-03T09:28:00.262Z,993.41
2018-03-03T09:29:53.156Z,993.44
2018-03-03T09:30:53.160Z,993.35
2018-03-03T09:32:46.069Z,993.45
2018-03-03T09:33:46.060Z,993.42
2018-03-03T09:35:38.944Z,993.36
2018-03-03T09:36:38.985Z,993.53
2018-03-03T09:38:31.875Z,993.32
2018-03-03T09:39:31.857Z,993.36
2018-03-03T09:41:24.743Z,993.37
2018-03-03T09:42:24.755Z,993.40
2018-03-03T09:44:17.668Z,993.40
2018-03-03T09:45:17.656Z,993.39
2018-03-03T09:47:10.541Z,993.36
2018-03-03T09:48:10.551Z,993.41
2018-03-03T09:50:03.472Z,993.62
2018-03-03T09:51:03.459Z,993.51
2018-03-03T09:52:56.361Z,993.50
2018-03-03T09:53:56.351Z,993.48
2018-03-03T09:55:49.279Z,993.47
2018-03-03T09:56:49.246Z,993.47
2018-03-03T09:58:42.148Z,993.45
2018-03-03T09:59:42.145Z,993.44
2018-03-03T10:01:35.108Z,993.43
2018-03-03T10:02:35.040Z,993.39
2018-03-03T10:04:27.944Z,993.43
2018-03-03T10:05:27.936Z,993.41
2018-03-03T10:07:20.822Z,993.50
2018-03-03T10:08:20.832Z,993.50
2018-03-03T10:10:13.746Z,993.44
2018-03-03T10:11:13.739Z,993.46
2018-03-03T10:13:06.638Z,993.46
2018-03-03T10:14:06.629Z,993.49
2018-03-03T10:15:59.516Z,993.51
2018-03-03T10:16:59.546Z,993.49
2018-03-03T10:18:52.432Z,993.56
2018-03-03T10:19:52.427Z,993.67
2018-03-03T10:21:45.317Z,993.59
2018-03-03T10:22:45.328Z,993.58
2018-03-03T10:24:38.235Z,993.60
2018-03-03T10:25:38.224Z,993.64
2018-03-03T10:27:31.112Z,993.60
2018-03-03T10:28:31.124Z,993.63
2018-03-03T10:30:24.029Z,993.65
2018-03-03T10:31:24.025Z,993.66
2018-03-03T10:33:16.928Z,993.66
2018-03-03T10:34:16.922Z,993.68
2018-03-03T10:36:09.938Z,993.59
2018-03-03T10:37:09.823Z,993.67
2018-03-03T10:39:02.716Z,993.58
2018-03-03T10:40:02.728Z,993.60
2018-03-03T10:41:55.642Z,993.49
2018-03-03T10:42:55.637Z,993.62
2018-03-03T10:44:48.521Z,993.70
2018-03-03T10:45:48.534Z,993.62
2018-03-03T10:47:41.440Z,993.66
2018-03-03T10:48:41.435Z,993.63
2018-03-03T10:50:34.321Z,993.72
2018-03-03T10:51:34.334Z,993.66
2018-03-03T10:53:27.242Z,993.63
2018-03-03T10:54:27.233Z,993.70
2018-03-03T10:56:20.143Z,993.61
2018-03-03T10:57:20.137Z,993.71
2018-03-03T10:59:13.024Z,993.71
2018-03-03T11:00:13.036Z,993.70
2018-03-03T11:02:05.948Z,993.66
2018-03-03T11:03:05.939Z,993.65
2018-03-03T11:04:58.827Z,993.67
2018-03-03T11:05:58.840Z,993.69
2018-03-03T11:07:51.745Z,993.70
2018-03-03T11:08:51.740Z,993.65
2018-03-03T11:10:44.639Z,993.65
2018-03-03T11:11:44.644Z,993.74
2018-03-03T11:13:37.556Z,993.72
2018-03-03T11:14:37.568Z,993.72
2018-03-03T11:16:30.468Z,993.63
2018-03-03T11:17:30.455Z,993.71
2018-03-03T11:19:23.357Z,993.79
2018-03-03T11:20:23.359Z,993.59
2018-03-03T11:22:16.283Z,993.61
2018-03-03T11:23:16.264Z,993.68
2018-03-03T11:25:09.155Z,993.61
2018-03-03T11:26:09.170Z,993.65
2018-03-03T11:28:02.081Z,993.67
2018-03-03T11:29:02.070Z,993.69
2018-03-03T11:30:54.964Z,993.82
2018-03-03T11:31:54.974Z,993.71
2018-03-03T11:33:47.923Z,993.63
2018-03-03T11:34:47.917Z,993.70
2018-03-03T11:36:40.906Z,993.74
2018-03-03T11:37:40.821Z,993.70
2018-03-03T11:39:33.768Z,993.71
2018-03-03T11:40:33.860Z,993.68
2018-03-03T11:42:26.671Z,993.70
2018-03-03T11:43:26.663Z,993.65
2018-03-03T11:45:19.559Z,993.64
2018-03-03T11:46:19.683Z,993.60
2018-03-03T11:48:12.522Z,993.60
2018-03-03T11:49:12.554Z,993.59
2018-03-03T11:51:05.398Z,993.58
2018-03-03T11:52:05.411Z,993.75
2018-03-03T11:53:58.351Z,993.65
2018-03-03T11:54:58.348Z,993.80
2018-03-03T11:56:51.255Z,993.67
2018-03-03T11:57:51.251Z,993.65
2018-03-03T11:59:44.142Z,993.60
2018-03-03T12:00:44.156Z,993.59
2018-03-03T12:02:37.089Z,993.61
2018-03-03T12:03:37.086Z,993.62
2018-03-03T12:05:29.978Z,993.62
2018-03-03T12:06:29.992Z,993.62
2018-03-03T12:08:22.912Z,993.55
2018-03-03T12:09:22.896Z,993.64
2018-03-03T12:11:16.301Z,993.60
2018-03-03T12:12:16.320Z,993.63
2018-03-03T12:14:09.266Z,993.52
2018-03-03T12:15:09.285Z,993.67
2018-03-03T12:17:02.174Z,993.60
2018-03-03T12:18:02.168Z,993.55
2018-03-03T12:19:55.060Z,993.56
2018-03-03T12:20:55.074Z,993.61
2018-03-03T12:22:48.034Z,993.59
2018-03-03T12:23:48.019Z,993.62
2018-03-03T12:25:41.024Z,993.62
2018-03-03T12:27:53.896Z,993.67
2018-03-03T12:28:53.913Z,993.62
2018-03-03T12:30:46.799Z,993.67
2018-03-03T12:31:46.802Z,993.66
2018-03-03T12:33:39.714Z,993.76
2018-03-03T12:34:39.707Z,993.71
2018-03-03T12:36:32.602Z,993.73
2018-03-03T12:37:32.614Z,993.66
2018-03-03T12:39:25.526Z,993.73
2018-03-03T12:40:25.521Z,993.65
2018-03-03T12:42:18.476Z,993.63
2018-03-03T12:43:18.448Z,993.58
2018-03-03T12:45:11.327Z,993.54
2018-03-03T12:46:11.328Z,993.58
2018-03-03T12:48:04.242Z,993.65
2018-03-03T12:49:04.235Z,993.53
2018-03-03T12:50:57.135Z,993.57
2018-03-03T12:51:57.146Z,993.55
2018-03-03T12:53:50.068Z,993.53
2018-03-03T12:54:50.065Z,993.59
2018-03-03T12:56:42.959Z,993.60
2018-03-03T12:57:42.972Z,993.69
2018-03-03T12:59:35.883Z,993.58
2018-03-03T13:00:35.874Z,993.59
2018-03-03T13:02:28.784Z,993.56
2018-03-03T13:03:28.778Z,993.63
2018-03-03T13:05:21.674Z,993.56
2018-03-03T13:06:21.690Z,993.54
2018-03-03T13:08:14.601Z,993.60
2018-03-03T13:09:14.606Z,993.63
2018-03-03T13:11:07.486Z,993.68
2018-03-03T13:12:07.500Z,993.67
2018-03-03T13:14:00.570Z,993.66
2018-03-03T13:15:00.405Z,993.68
2018-03-03T13:16:53.292Z,993.67
2018-03-03T13:17:53.310Z,993.63
2018-03-03T13:19:46.218Z,993.69
2018-03-03T13:20:46.213Z,993.73
2018-03-03T13:22:39.127Z,993.70
2018-03-03T13:23:39.119Z,993.73
2018-03-03T13:25:32.012Z,993.74
2018-03-03T13:26:32.023Z,993.70
2018-03-03T13:28:24.930Z,993.72
2018-03-03T13:29:24.925Z,993.70
2018-03-03T13:31:17.816Z,993.71
2018-03-03T13:32:17.830Z,993.72
2018-03-03T13:34:10.743Z,993.71
2018-03-03T13:35:10.735Z,993.76
2018-03-03T13:37:03.627Z,993.73
2018-03-03T13:38:03.642Z,993.78
2018-03-03T13:39:56.555Z,993.77
2018-03-03T13:40:56.545Z,993.77
2018-03-03T13:42:49.458Z,993.79
2018-03-03T13:43:49.513Z,993.82
2018-03-03T13:45:42.344Z,993.88
2018-03-03T13:46:42.357Z,993.86
2018-03-03T13:48:35.261Z,993.84
2018-03-03T13:49:35.274Z,993.86
2018-03-03T13:51:28.146Z,993.86
2018-03-03T13:52:28.190Z,993.87
2018-03-03T13:54:21.081Z,993.88
2018-03-03T13:55:21.066Z,993.94
2018-03-03T13:57:13.996Z,993.86
2018-03-03T13:58:14.010Z,993.95
2018-03-03T14:00:06.945Z,993.86
2018-03-03T14:01:06.975Z,993.89
2018-03-03T14:02:59.847Z,993.85
2018-03-03T14:03:59.841Z,993.83
2018-03-03T14:05:52.803Z,993.81
2018-03-03T14:06:52.744Z,993.81
2018-03-03T14:08:45.687Z,993.83
2018-03-03T14:09:45.681Z,993.89
2018-03-03T14:11:38.568Z,993.96
2018-03-03T14:12:38.580Z,993.97
2018-03-03T14:14:31.490Z,993.90
2018-03-03T14:15:31.486Z,993.93
2018-03-03T14:17:24.438Z,993.92
2018-03-03T14:18:24.410Z,993.92
2018-03-03T14:20:17.300Z,993.86
2018-03-03T14:21:17.294Z,993.91
2018-03-03T14:23:10.203Z,993.93
2018-03-03T14:24:10.195Z,993.92
2018-03-03T14:26:03.089Z,993.93
2018-03-03T14:27:03.110Z,993.91
2018-03-03T14:28:56.027Z,993.90
2018-03-03T14:29:56.022Z,993.93
2018-03-03T14:31:48.924Z,993.94
2018-03-03T14:32:48.936Z,993.87
2018-03-03T14:34:41.842Z,993.95
2018-03-03T14:35:41.837Z,993.86
2018-03-03T14:37:34.725Z,993.94
2018-03-03T14:38:34.737Z,993.88
2018-03-03T14:40:27.644Z,993.97
2018-03-03T14:41:27.641Z,993.92
2018-03-03T14:43:20.552Z,994.06
2018-03-03T14:44:20.541Z,994.01
2018-03-03T14:46:13.445Z,993.93
2018-03-03T14:47:13.459Z,993.94
2018-03-03T14:49:06.371Z,993.97
2018-03-03T14:50:06.365Z,993.94
2018-03-03T14:51:59.259Z,993.94
2018-03-03T14:52:59.268Z,994.00
2018-03-03T14:54:52.176Z,993.92
2018-03-03T14:55:52.171Z,993.95
2018-03-03T14:57:45.056Z,993.89
2018-03-03T14:58:45.068Z,993.96
2018-03-03T15:00:37.982Z,993.96
2018-03-03T15:01:37.973Z,993.90
2018-03-03T15:03:30.881Z,993.90
2018-03-03T15:04:30.874Z,993.87
2018-03-03T15:06:23.787Z,993.91
2018-03-03T15:07:23.799Z,993.92
2018-03-03T15:09:16.712Z,993.95
2018-03-03T15:10:16.734Z,993.88
2018-03-03T15:12:09.593Z,993.93
2018-03-03T15:13:09.605Z,993.90
2018-03-03T15:15:02.515Z,993.94
2018-03-03T15:16:02.515Z,993.88
2018-03-03T15:17:55.396Z,993.91
2018-03-03T15:18:55.408Z,993.91
2018-03-03T15:20:48.322Z,993.92
2018-03-03T15:21:48.318Z,993.91
2018-03-03T15:23:41.237Z,993.95
2018-03-03T15:24:41.218Z,993.91
2018-03-03T15:26:34.118Z,993.98
2018-03-03T15:27:34.130Z,993.98
2018-03-03T15:29:27.034Z,994.02
2018-03-03T15:30:27.038Z,993.98
2018-03-03T15:32:19.943Z,993.97
2018-03-03T15:33:19.941Z,994.11
2018-03-03T15:35:12.863Z,994.08
2018-03-03T15:36:12.873Z,994.11
2018-03-03T15:38:05.730Z,994.14
2018-03-03T15:39:05.744Z,993.93
2018-03-03T15:40:58.646Z,994.11
2018-03-03T15:41:58.641Z,994.07
2018-03-03T15:43:51.553Z,994.04
2018-03-03T15:44:51.568Z,994.06
2018-03-03T15:46:44.438Z,994.10
2018-03-03T15:47:44.446Z,994.06
2018-03-03T15:49:37.352Z,994.12
2018-03-03T15:50:37.368Z,994.05
2018-03-03T15:52:30.252Z,994.10
2018-03-03T15:53:30.277Z,994.14
2018-03-03T15:55:23.155Z,994.11
2018-03-03T15:56:23.194Z,994.10
2018-03-03T15:58:16.063Z,994.14
2018-03-03T15:59:16.073Z,994.14
2018-03-03T16:01:09.052Z,994.11
2018-03-03T16:02:09.018Z,994.09
2018-03-03T16:04:01.879Z,994.05
2018-03-03T16:05:01.875Z,994.02
2018-03-03T16:06:54.797Z,994.04
2018-03-03T16:07:54.805Z,994.04
2018-03-03T16:09:47.687Z,994.04
2018-03-03T16:10:47.720Z,994.07
2018-03-03T16:12:40.566Z,994.07
2018-03-03T16:13:40.578Z,994.10
2018-03-03T16:15:33.484Z,994.14
2018-03-03T16:16:33.478Z,994.11
2018-03-03T16:18:26.380Z,994.11
2018-03-03T16:19:26.392Z,994.15
2018-03-03T16:21:19.299Z,994.20
2018-03-03T16:22:19.292Z,994.22
2018-03-03T16:24:12.231Z,994.22
2018-03-03T16:25:12.193Z,994.27
2018-03-03T16:27:05.082Z,994.25
2018-03-03T16:28:05.096Z,994.25
2018-03-03T16:29:58.002Z,994.23
2018-03-03T16:30:58.000Z,994.21
2018-03-03T16:32:50.884Z,994.26
2018-03-03T16:33:50.900Z,994.25
2018-03-03T16:35:43.803Z,994.21
2018-03-03T16:36:43.796Z,994.18
2018-03-03T16:38:36.684Z,994.16
2018-03-03T16:39:36.695Z,994.13
2018-03-03T16:41:29.604Z,994.16
2018-03-03T16:42:29.601Z,994.20
2018-03-03T16:44:22.504Z,994.29
2018-03-03T16:45:22.498Z,994.21
2018-03-03T16:47:15.390Z,994.25
2018-03-03T16:48:15.403Z,994.24
2018-03-03T16:50:08.308Z,994.32
2018-03-03T16:51:08.324Z,994.26
2018-03-03T16:53:01.195Z,994.33
2018-03-03T16:54:01.212Z,994.44
2018-03-03T16:55:54.128Z,994.39
2018-03-03T16:56:54.107Z,994.45
2018-03-03T16:58:47.003Z,994.42
2018-03-03T16:59:47.003Z,994.42
2018-03-03T17:01:39.940Z,994.57
2018-03-03T17:02:39.906Z,994.48
2018-03-03T17:04:32.809Z,994.45
2018-03-03T17:05:32.801Z,994.46
2018-03-03T17:07:25.691Z,994.47
2018-03-03T17:08:25.706Z,994.49
2018-03-03T17:10:18.629Z,994.50
2018-03-03T17:11:18.600Z,994.47
2018-03-03T17:13:12.479Z,994.48
2018-03-03T17:14:12.492Z,994.45
2018-03-03T17:16:05.411Z,994.45
2018-03-03T17:17:05.389Z,994.45
2018-03-03T17:18:58.275Z,994.42
2018-03-03T17:19:58.286Z,994.46
2018-03-03T17:21:51.198Z,994.42
2018-03-03T17:22:51.189Z,994.45
2018-03-03T17:24:44.097Z,994.41
2018-03-03T17:25:44.085Z,994.41
2018-03-03T17:27:36.982Z,994.45
2018-03-03T17:28:36.990Z,994.50
2018-03-03T17:30:29.901Z,994.51
2018-03-03T17:31:29.891Z,994.53
2018-03-03T17:33:22.773Z,994.52
2018-03-03T17:34:22.794Z,994.55
2018-03-03T17:36:15.694Z,994.53
2018-03-03T17:37:15.690Z,994.56
2018-03-03T17:39:08.577Z,994.48
2018-03-03T17:40:08.592Z,994.49
2018-03-03T17:42:01.494Z,994.54
2018-03-03T17:43:01.490Z,994.49
2018-03-03T17:44:54.409Z,994.57
2018-03-03T17:45:54.395Z,994.61
2018-03-03T17:47:47.294Z,994.59
2018-03-03T17:48:47.306Z,994.65
2018-03-03T17:50:40.216Z,994.58
2018-03-03T17:51:40.211Z,994.59
2018-03-03T17:53:33.101Z,994.66
2018-03-03T17:54:33.109Z,994.59
2018-03-03T17:56:26.019Z,994.58
2018-03-03T17:57:26.006Z,994.58
2018-03-03T17:59:18.899Z,994.55
2018-03-03T18:00:18.907Z,994.60